sensor_id;sensor_type;location;lat;lon;timestamp;temperature;humidity
52107;DHT22;38105;52.968;5.974;2023-04-08T00:01:43;4.20;99.90
52107;DHT22;38105;52.968;5.974;2023-04-08T00:04:10;4.10;99.90
52107;DHT22;38105;52.968;5.974;2023-04-08T00:06:36;4.10;99.90
52107;DHT22;38105;52.968;5.974;2023-04-08T00:09:03;4.10;99.90
52107;DHT22;38105;52.968;5.974;2023-04-08T00:11:29;4.00;99.90
52107;DHT22;38105;52.968;5.974;2023-04-08T00:13:55;4.10;99.90
52107;DHT22;38105;52.968;5.974;2023-04-08T00:16:20;4.10;99.90
52107;DHT22;38105;52.968;5.974;2023-04-08T00:18:47;4.00;99.90
52107;DHT22;38105;52.968;5.974;2023-04-08T00:21:13;4.00;99.90
52107;DHT22;38105;52.968;5.974;2023-04-08T00:23:42;4.00;99.90
52107;DHT22;38105;52.968;5.974;2023-04-08T00:26:08;3.90;99.90
52107;DHT22;38105;52.968;5.974;2023-04-08T00:28:34;4.00;99.90
52107;DHT22;38105;52.968;5.974;2023-04-08T00:30:59;3.90;99.90
52107;DHT22;38105;52.968;5.974;2023-04-08T00:33:25;3.80;99.90
52107;DHT22;38105;52.968;5.974;2023-04-08T00:35:51;3.80;99.90
52107;DHT22;38105;52.968;5.974;2023-04-08T00:38:16;3.80;99.90
52107;DHT22;38105;52.968;5.974;2023-04-08T00:40:42;3.70;99.90
52107;DHT22;38105;52.968;5.974;2023-04-08T00:43:08;3.70;99.90
52107;DHT22;38105;52.968;5.974;2023-04-08T00:45:33;3.70;99.90
52107;DHT22;38105;52.968;5.974;2023-04-08T00:48:01;3.60;99.90
52107;DHT22;38105;52.968;5.974;2023-04-08T00:50:27;3.70;99.90
52107;DHT22;38105;52.968;5.974;2023-04-08T00:52:53;3.60;99.90
52107;DHT22;38105;52.968;5.974;2023-04-08T00:55:18;3.50;99.90
52107;DHT22;38105;52.968;5.974;2023-04-08T00:57:44;3.50;99.90
52107;DHT22;38105;52.968;5.974;2023-04-08T01:00:11;3.60;99.90
52107;DHT22;38105;52.968;5.974;2023-04-08T01:02:40;3.50;99.90
52107;DHT22;38105;52.968;5.974;2023-04-08T01:05:27;3.50;99.90
52107;DHT22;38105;52.968;5.974;2023-04-08T01:07:55;3.40;99.90
52107;DHT22;38105;52.968;5.974;2023-04-08T01:10:29;3.30;99.90
52107;DHT22;38105;52.968;5.974;2023-04-08T01:12:58;3.40;99.90
52107;DHT22;38105;52.968;5.974;2023-04-08T01:15:25;3.30;99.90
52107;DHT22;38105;52.968;5.974;2023-04-08T01:17:54;3.30;99.90
52107;DHT22;38105;52.968;5.974;2023-04-08T01:20:23;3.20;99.90
52107;DHT22;38105;52.968;5.974;2023-04-08T01:25:36;3.20;99.90
52107;DHT22;38105;52.968;5.974;2023-04-08T01:28:09;3.20;99.90
52107;DHT22;38105;52.968;5.974;2023-04-08T01:30:37;3.20;99.90
52107;DHT22;38105;52.968;5.974;2023-04-08T01:33:04;3.10;99.90
52107;DHT22;38105;52.968;5.974;2023-04-08T01:35:30;3.10;99.90
52107;DHT22;38105;52.968;5.974;2023-04-08T01:37:57;3.10;99.90
52107;DHT22;38105;52.968;5.974;2023-04-08T01:40:23;3.10;99.90
52107;DHT22;38105;52.968;5.974;2023-04-08T01:42:53;3.10;99.90
52107;DHT22;38105;52.968;5.974;2023-04-08T01:45:19;3.10;99.90
52107;DHT22;38105;52.968;5.974;2023-04-08T01:47:46;3.10;99.90
52107;DHT22;38105;52.968;5.974;2023-04-08T01:50:13;3.00;99.90
52107;DHT22;38105;52.968;5.974;2023-04-08T01:52:40;3.10;99.90
52107;DHT22;38105;52.968;5.974;2023-04-08T01:55:07;3.10;99.90
52107;DHT22;38105;52.968;5.974;2023-04-08T01:57:36;3.00;99.90
52107;DHT22;38105;52.968;5.974;2023-04-08T02:00:07;2.90;99.90
52107;DHT22;38105;52.968;5.974;2023-04-08T02:02:35;3.00;99.90
52107;DHT22;38105;52.968;5.974;2023-04-08T02:05:01;3.00;99.90
52107;DHT22;38105;52.968;5.974;2023-04-08T02:07:27;3.00;99.90
52107;DHT22;38105;52.968;5.974;2023-04-08T02:09:52;2.80;99.90
52107;DHT22;38105;52.968;5.974;2023-04-08T02:12:18;2.90;99.90
52107;DHT22;38105;52.968;5.974;2023-04-08T02:14:44;2.90;99.90
52107;DHT22;38105;52.968;5.974;2023-04-08T02:17:24;2.80;99.90
52107;DHT22;38105;52.968;5.974;2023-04-08T02:19:59;2.80;99.90
52107;DHT22;38105;52.968;5.974;2023-04-08T02:22:43;2.70;99.90
52107;DHT22;38105;52.968;5.974;2023-04-08T02:25:14;2.70;99.90
52107;DHT22;38105;52.968;5.974;2023-04-08T02:27:40;2.70;99.90
52107;DHT22;38105;52.968;5.974;2023-04-08T02:30:09;2.60;99.90
52107;DHT22;38105;52.968;5.974;2023-04-08T02:32:36;2.60;99.90
52107;DHT22;38105;52.968;5.974;2023-04-08T02:35:03;2.50;99.90
52107;DHT22;38105;52.968;5.974;2023-04-08T02:37:30;2.50;99.90
52107;DHT22;38105;52.968;5.974;2023-04-08T02:39:56;2.40;99.90
52107;DHT22;38105;52.968;5.974;2023-04-08T02:42:22;2.60;99.90
52107;DHT22;38105;52.968;5.974;2023-04-08T02:44:47;2.50;99.90
52107;DHT22;38105;52.968;5.974;2023-04-08T02:47:13;2.50;99.90
52107;DHT22;38105;52.968;5.974;2023-04-08T02:49:39;2.50;99.90
52107;DHT22;38105;52.968;5.974;2023-04-08T02:52:05;2.60;99.90
52107;DHT22;38105;52.968;5.974;2023-04-08T02:54:30;2.50;99.90
52107;DHT22;38105;52.968;5.974;2023-04-08T02:56:56;2.50;99.90
52107;DHT22;38105;52.968;5.974;2023-04-08T02:59:22;2.70;99.90
52107;DHT22;38105;52.968;5.974;2023-04-08T03:01:47;2.70;99.90
52107;DHT22;38105;52.968;5.974;2023-04-08T03:04:13;2.60;99.90
52107;DHT22;38105;52.968;5.974;2023-04-08T03:06:38;2.40;99.90
52107;DHT22;38105;52.968;5.974;2023-04-08T03:09:04;2.40;99.90
52107;DHT22;38105;52.968;5.974;2023-04-08T03:11:30;2.30;99.90
52107;DHT22;38105;52.968;5.974;2023-04-08T03:13:56;2.40;99.90
52107;DHT22;38105;52.968;5.974;2023-04-08T03:16:22;2.50;99.90
52107;DHT22;38105;52.968;5.974;2023-04-08T03:18:50;2.20;99.90
52107;DHT22;38105;52.968;5.974;2023-04-08T03:21:16;2.20;99.90
52107;DHT22;38105;52.968;5.974;2023-04-08T03:23:43;2.20;99.90
52107;DHT22;38105;52.968;5.974;2023-04-08T03:26:08;2.30;99.90
52107;DHT22;38105;52.968;5.974;2023-04-08T03:28:34;2.30;99.90
52107;DHT22;38105;52.968;5.974;2023-04-08T03:31:00;2.10;99.90
52107;DHT22;38105;52.968;5.974;2023-04-08T03:33:27;2.10;99.90
52107;DHT22;38105;52.968;5.974;2023-04-08T03:35:53;2.00;99.90
52107;DHT22;38105;52.968;5.974;2023-04-08T03:38:19;2.00;99.90
52107;DHT22;38105;52.968;5.974;2023-04-08T03:40:45;2.00;99.90
52107;DHT22;38105;52.968;5.974;2023-04-08T03:43:10;2.30;99.90
52107;DHT22;38105;52.968;5.974;2023-04-08T03:45:37;2.20;99.90
52107;DHT22;38105;52.968;5.974;2023-04-08T03:48:03;2.20;99.90
52107;DHT22;38105;52.968;5.974;2023-04-08T03:50:29;2.00;99.90
52107;DHT22;38105;52.968;5.974;2023-04-08T03:52:55;2.00;99.90
52107;DHT22;38105;52.968;5.974;2023-04-08T03:55:20;2.20;99.90
52107;DHT22;38105;52.968;5.974;2023-04-08T03:57:46;2.20;99.90
52107;DHT22;38105;52.968;5.974;2023-04-08T04:00:12;2.20;99.90
52107;DHT22;38105;52.968;5.974;2023-04-08T04:02:38;1.80;99.90
52107;DHT22;38105;52.968;5.974;2023-04-08T04:05:04;1.80;99.90
52107;DHT22;38105;52.968;5.974;2023-04-08T04:07:30;1.80;99.90
52107;DHT22;38105;52.968;5.974;2023-04-08T04:09:55;1.80;99.90
52107;DHT22;38105;52.968;5.974;2023-04-08T04:12:22;2.10;99.90
52107;DHT22;38105;52.968;5.974;2023-04-08T04:14:47;1.90;99.90
52107;DHT22;38105;52.968;5.974;2023-04-08T04:17:13;2.10;99.90
52107;DHT22;38105;52.968;5.974;2023-04-08T04:19:39;1.80;99.90
52107;DHT22;38105;52.968;5.974;2023-04-08T04:22:05;1.90;99.90
52107;DHT22;38105;52.968;5.974;2023-04-08T04:24:30;1.70;99.90
52107;DHT22;38105;52.968;5.974;2023-04-08T04:26:56;2.00;99.90
52107;DHT22;38105;52.968;5.974;2023-04-08T04:29:21;2.10;99.90
52107;DHT22;38105;52.968;5.974;2023-04-08T04:31:47;2.00;99.90
52107;DHT22;38105;52.968;5.974;2023-04-08T04:34:13;1.90;99.90
52107;DHT22;38105;52.968;5.974;2023-04-08T04:36:38;1.70;99.90
52107;DHT22;38105;52.968;5.974;2023-04-08T04:39:04;2.00;99.90
52107;DHT22;38105;52.968;5.974;2023-04-08T04:41:30;1.80;99.90
52107;DHT22;38105;52.968;5.974;2023-04-08T04:43:55;1.90;99.90
52107;DHT22;38105;52.968;5.974;2023-04-08T04:46:21;2.20;99.90
52107;DHT22;38105;52.968;5.974;2023-04-08T04:48:47;1.90;99.90
52107;DHT22;38105;52.968;5.974;2023-04-08T04:51:13;2.00;99.90
52107;DHT22;38105;52.968;5.974;2023-04-08T04:53:38;2.10;99.90
52107;DHT22;38105;52.968;5.974;2023-04-08T04:56:04;1.90;99.90
52107;DHT22;38105;52.968;5.974;2023-04-08T04:58:30;1.80;99.90
52107;DHT22;38105;52.968;5.974;2023-04-08T05:00:56;2.00;99.90
52107;DHT22;38105;52.968;5.974;2023-04-08T05:03:21;2.10;99.90
52107;DHT22;38105;52.968;5.974;2023-04-08T05:05:51;2.10;99.90
52107;DHT22;38105;52.968;5.974;2023-04-08T05:08:17;2.10;99.90
52107;DHT22;38105;52.968;5.974;2023-04-08T05:10:43;1.80;99.90
52107;DHT22;38105;52.968;5.974;2023-04-08T05:13:09;1.90;99.90
52107;DHT22;38105;52.968;5.974;2023-04-08T05:15:34;1.80;99.90
52107;DHT22;38105;52.968;5.974;2023-04-08T05:18:00;1.90;99.90
52107;DHT22;38105;52.968;5.974;2023-04-08T05:20:26;2.00;99.90
52107;DHT22;38105;52.968;5.974;2023-04-08T05:22:51;2.20;99.90
52107;DHT22;38105;52.968;5.974;2023-04-08T05:25:17;2.20;99.90
52107;DHT22;38105;52.968;5.974;2023-04-08T05:27:43;2.20;99.90
52107;DHT22;38105;52.968;5.974;2023-04-08T05:30:09;2.10;99.90
52107;DHT22;38105;52.968;5.974;2023-04-08T05:32:34;2.10;99.90
52107;DHT22;38105;52.968;5.974;2023-04-08T05:35:04;2.20;99.90
52107;DHT22;38105;52.968;5.974;2023-04-08T05:37:29;2.50;99.90
52107;DHT22;38105;52.968;5.974;2023-04-08T05:39:55;2.70;99.90
52107;DHT22;38105;52.968;5.974;2023-04-08T05:42:21;3.00;99.90
52107;DHT22;38105;52.968;5.974;2023-04-08T05:44:47;2.60;99.90
52107;DHT22;38105;52.968;5.974;2023-04-08T05:47:12;2.60;99.90
52107;DHT22;38105;52.968;5.974;2023-04-08T05:49:39;3.00;99.90
52107;DHT22;38105;52.968;5.974;2023-04-08T05:52:05;3.20;99.90
52107;DHT22;38105;52.968;5.974;2023-04-08T05:54:31;3.10;99.90
52107;DHT22;38105;52.968;5.974;2023-04-08T05:56:57;3.30;99.90
52107;DHT22;38105;52.968;5.974;2023-04-08T05:59:23;3.40;99.90
52107;DHT22;38105;52.968;5.974;2023-04-08T06:01:48;3.40;99.90
52107;DHT22;38105;52.968;5.974;2023-04-08T06:04:14;3.50;99.90
52107;DHT22;38105;52.968;5.974;2023-04-08T06:06:42;3.40;99.90
52107;DHT22;38105;52.968;5.974;2023-04-08T06:09:07;3.50;99.90
52107;DHT22;38105;52.968;5.974;2023-04-08T06:11:34;3.50;99.90
52107;DHT22;38105;52.968;5.974;2023-04-08T06:14:00;3.50;99.90
52107;DHT22;38105;52.968;5.974;2023-04-08T06:16:26;3.70;99.90
52107;DHT22;38105;52.968;5.974;2023-04-08T06:18:52;3.70;99.90
52107;DHT22;38105;52.968;5.974;2023-04-08T06:21:18;3.80;99.90
52107;DHT22;38105;52.968;5.974;2023-04-08T06:23:43;3.80;99.90
52107;DHT22;38105;52.968;5.974;2023-04-08T06:26:09;3.80;99.90
52107;DHT22;38105;52.968;5.974;2023-04-08T06:28:35;3.90;99.90
52107;DHT22;38105;52.968;5.974;2023-04-08T06:31:01;4.10;99.90
52107;DHT22;38105;52.968;5.974;2023-04-08T06:33:27;4.00;99.90
52107;DHT22;38105;52.968;5.974;2023-04-08T06:36:04;4.20;99.90
52107;DHT22;38105;52.968;5.974;2023-04-08T06:38:30;4.20;99.90
52107;DHT22;38105;52.968;5.974;2023-04-08T06:41:03;4.30;99.90
52107;DHT22;38105;52.968;5.974;2023-04-08T06:43:29;4.60;99.90
52107;DHT22;38105;52.968;5.974;2023-04-08T06:45:55;5.90;99.90
52107;DHT22;38105;52.968;5.974;2023-04-08T06:48:22;7.90;99.90
52107;DHT22;38105;52.968;5.974;2023-04-08T06:50:54;9.60;99.90
52107;DHT22;38105;52.968;5.974;2023-04-08T06:53:20;10.80;99.90
52107;DHT22;38105;52.968;5.974;2023-04-08T06:55:46;11.60;99.90
52107;DHT22;38105;52.968;5.974;2023-04-08T06:58:12;11.90;99.90
52107;DHT22;38105;52.968;5.974;2023-04-08T07:00:38;11.20;99.90
52107;DHT22;38105;52.968;5.974;2023-04-08T07:03:03;11.30;99.90
52107;DHT22;38105;52.968;5.974;2023-04-08T07:05:29;10.60;99.90
52107;DHT22;38105;52.968;5.974;2023-04-08T07:07:55;9.70;99.90
52107;DHT22;38105;52.968;5.974;2023-04-08T07:10:21;9.10;99.90
52107;DHT22;38105;52.968;5.974;2023-04-08T07:12:46;8.60;99.90
52107;DHT22;38105;52.968;5.974;2023-04-08T07:15:12;8.20;99.90
52107;DHT22;38105;52.968;5.974;2023-04-08T07:17:38;7.80;99.90
52107;DHT22;38105;52.968;5.974;2023-04-08T07:20:05;7.50;99.90
52107;DHT22;38105;52.968;5.974;2023-04-08T07:22:30;7.40;99.90
52107;DHT22;38105;52.968;5.974;2023-04-08T07:24:56;7.40;99.90
52107;DHT22;38105;52.968;5.974;2023-04-08T07:27:22;7.50;99.90
52107;DHT22;38105;52.968;5.974;2023-04-08T07:29:52;7.80;99.90
52107;DHT22;38105;52.968;5.974;2023-04-08T07:32:18;7.90;99.90
52107;DHT22;38105;52.968;5.974;2023-04-08T07:34:44;8.70;99.90
52107;DHT22;38105;52.968;5.974;2023-04-08T07:37:10;10.00;99.90
52107;DHT22;38105;52.968;5.974;2023-04-08T07:39:35;10.40;99.90
52107;DHT22;38105;52.968;5.974;2023-04-08T07:42:01;10.10;99.90
52107;DHT22;38105;52.968;5.974;2023-04-08T07:44:27;9.60;99.90
52107;DHT22;38105;52.968;5.974;2023-04-08T07:46:52;9.10;99.90
52107;DHT22;38105;52.968;5.974;2023-04-08T07:49:18;8.90;99.90
52107;DHT22;38105;52.968;5.974;2023-04-08T07:51:43;8.50;99.90
52107;DHT22;38105;52.968;5.974;2023-04-08T07:54:09;8.40;99.90
52107;DHT22;38105;52.968;5.974;2023-04-08T07:56:37;8.20;99.90
52107;DHT22;38105;52.968;5.974;2023-04-08T07:59:05;8.10;99.90
52107;DHT22;38105;52.968;5.974;2023-04-08T08:01:31;8.00;99.90
52107;DHT22;38105;52.968;5.974;2023-04-08T08:04:00;7.80;99.90
52107;DHT22;38105;52.968;5.974;2023-04-08T08:06:26;7.70;99.90
52107;DHT22;38105;52.968;5.974;2023-04-08T08:08:57;7.60;99.90
52107;DHT22;38105;52.968;5.974;2023-04-08T08:11:22;7.50;99.90
52107;DHT22;38105;52.968;5.974;2023-04-08T08:13:48;7.50;99.90
52107;DHT22;38105;52.968;5.974;2023-04-08T08:16:14;7.40;99.90
52107;DHT22;38105;52.968;5.974;2023-04-08T08:18:40;7.40;99.90
52107;DHT22;38105;52.968;5.974;2023-04-08T08:21:06;7.50;99.90
52107;DHT22;38105;52.968;5.974;2023-04-08T08:23:32;7.50;99.90
52107;DHT22;38105;52.968;5.974;2023-04-08T08:25:59;7.70;99.90
52107;DHT22;38105;52.968;5.974;2023-04-08T08:28:25;7.80;99.90
52107;DHT22;38105;52.968;5.974;2023-04-08T08:30:51;7.90;99.90
52107;DHT22;38105;52.968;5.974;2023-04-08T08:33:16;8.00;99.90
52107;DHT22;38105;52.968;5.974;2023-04-08T08:35:42;8.00;99.90
52107;DHT22;38105;52.968;5.974;2023-04-08T08:38:07;8.10;99.90
52107;DHT22;38105;52.968;5.974;2023-04-08T08:40:33;8.20;99.90
52107;DHT22;38105;52.968;5.974;2023-04-08T08:42:59;8.50;99.90
52107;DHT22;38105;52.968;5.974;2023-04-08T08:45:26;9.00;99.90
52107;DHT22;38105;52.968;5.974;2023-04-08T08:47:51;9.90;99.90
52107;DHT22;38105;52.968;5.974;2023-04-08T08:50:18;11.60;99.90
52107;DHT22;38105;52.968;5.974;2023-04-08T08:52:50;12.60;99.90
52107;DHT22;38105;52.968;5.974;2023-04-08T08:55:20;13.70;99.90
52107;DHT22;38105;52.968;5.974;2023-04-08T08:57:49;14.50;99.90
52107;DHT22;38105;52.968;5.974;2023-04-08T09:00:16;14.50;99.90
52107;DHT22;38105;52.968;5.974;2023-04-08T09:02:42;14.70;99.90
52107;DHT22;38105;52.968;5.974;2023-04-08T09:05:07;15.00;99.90
52107;DHT22;38105;52.968;5.974;2023-04-08T09:07:37;15.70;99.90
52107;DHT22;38105;52.968;5.974;2023-04-08T09:10:07;16.60;99.90
52107;DHT22;38105;52.968;5.974;2023-04-08T09:12:33;16.30;99.90
52107;DHT22;38105;52.968;5.974;2023-04-08T09:15:06;16.30;99.90
52107;DHT22;38105;52.968;5.974;2023-04-08T09:17:37;15.70;99.90
52107;DHT22;38105;52.968;5.974;2023-04-08T09:27:50;14.60;99.90
52107;DHT22;38105;52.968;5.974;2023-04-08T09:30:16;15.20;99.90
52107;DHT22;38105;52.968;5.974;2023-04-08T09:35:21;15.70;99.90
52107;DHT22;38105;52.968;5.974;2023-04-08T09:37:47;15.50;99.90
52107;DHT22;38105;52.968;5.974;2023-04-08T09:40:14;15.90;99.90
52107;DHT22;38105;52.968;5.974;2023-04-08T09:42:44;16.30;99.90
52107;DHT22;38105;52.968;5.974;2023-04-08T09:45:11;16.30;99.90
52107;DHT22;38105;52.968;5.974;2023-04-08T09:50:37;17.20;99.90
52107;DHT22;38105;52.968;5.974;2023-04-08T09:53:19;16.60;99.90
52107;DHT22;38105;52.968;5.974;2023-04-08T09:55:49;16.00;99.90
52107;DHT22;38105;52.968;5.974;2023-04-08T09:58:21;16.30;99.90
52107;DHT22;38105;52.968;5.974;2023-04-08T10:00:53;16.00;99.90
52107;DHT22;38105;52.968;5.974;2023-04-08T10:03:32;15.70;99.90
52107;DHT22;38105;52.968;5.974;2023-04-08T10:06:01;15.90;99.90
52107;DHT22;38105;52.968;5.974;2023-04-08T10:08:28;15.80;99.90
52107;DHT22;38105;52.968;5.974;2023-04-08T10:10:55;15.70;99.90
52107;DHT22;38105;52.968;5.974;2023-04-08T10:13:22;15.20;99.90
52107;DHT22;38105;52.968;5.974;2023-04-08T10:15:48;14.80;99.90
52107;DHT22;38105;52.968;5.974;2023-04-08T10:20:44;14.70;99.90
52107;DHT22;38105;52.968;5.974;2023-04-08T10:23:12;14.70;99.90
52107;DHT22;38105;52.968;5.974;2023-04-08T10:25:42;14.50;99.90
52107;DHT22;38105;52.968;5.974;2023-04-08T10:30:53;14.30;99.90
52107;DHT22;38105;52.968;5.974;2023-04-08T10:36:10;14.20;99.90
52107;DHT22;38105;52.968;5.974;2023-04-08T10:38:37;14.30;99.90
52107;DHT22;38105;52.968;5.974;2023-04-08T10:41:03;14.20;99.90
52107;DHT22;38105;52.968;5.974;2023-04-08T10:43:35;14.20;99.90
52107;DHT22;38105;52.968;5.974;2023-04-08T10:46:02;14.30;99.90
52107;DHT22;38105;52.968;5.974;2023-04-08T10:48:28;14.30;99.90
52107;DHT22;38105;52.968;5.974;2023-04-08T10:51:01;14.30;99.90
52107;DHT22;38105;52.968;5.974;2023-04-08T10:53:34;14.10;99.90
52107;DHT22;38105;52.968;5.974;2023-04-08T10:56:08;14.40;99.90
52107;DHT22;38105;52.968;5.974;2023-04-08T10:58:50;14.30;99.90
52107;DHT22;38105;52.968;5.974;2023-04-08T11:01:16;14.20;99.90
52107;DHT22;38105;52.968;5.974;2023-04-08T11:03:42;13.80;99.90
52107;DHT22;38105;52.968;5.974;2023-04-08T11:06:08;13.70;99.90
52107;DHT22;38105;52.968;5.974;2023-04-08T11:08:35;13.60;99.90
52107;DHT22;38105;52.968;5.974;2023-04-08T11:11:02;13.40;99.90
52107;DHT22;38105;52.968;5.974;2023-04-08T11:13:29;13.20;99.90
52107;DHT22;38105;52.968;5.974;2023-04-08T11:15:56;13.20;99.90
52107;DHT22;38105;52.968;5.974;2023-04-08T11:18:23;13.00;99.90
52107;DHT22;38105;52.968;5.974;2023-04-08T11:20:52;13.00;99.90
52107;DHT22;38105;52.968;5.974;2023-04-08T11:23:18;12.60;99.90
52107;DHT22;38105;52.968;5.974;2023-04-08T11:25:45;12.50;99.90
52107;DHT22;38105;52.968;5.974;2023-04-08T11:28:14;12.20;99.90
52107;DHT22;38105;52.968;5.974;2023-04-08T11:30:40;12.00;99.90
52107;DHT22;38105;52.968;5.974;2023-04-08T11:33:07;11.80;99.90
52107;DHT22;38105;52.968;5.974;2023-04-08T11:35:33;11.70;99.90
52107;DHT22;38105;52.968;5.974;2023-04-08T11:37:59;11.60;99.90
52107;DHT22;38105;52.968;5.974;2023-04-08T11:40:25;11.40;99.90
52107;DHT22;38105;52.968;5.974;2023-04-08T11:42:51;11.30;99.90
52107;DHT22;38105;52.968;5.974;2023-04-08T11:45:19;11.40;99.90
52107;DHT22;38105;52.968;5.974;2023-04-08T11:47:47;11.30;99.90
52107;DHT22;38105;52.968;5.974;2023-04-08T11:50:26;11.40;99.90
52107;DHT22;38105;52.968;5.974;2023-04-08T11:52:54;11.40;99.90
52107;DHT22;38105;52.968;5.974;2023-04-08T11:55:23;11.40;99.90
52107;DHT22;38105;52.968;5.974;2023-04-08T11:57:50;11.40;99.90
52107;DHT22;38105;52.968;5.974;2023-04-08T12:00:17;11.50;99.90
52107;DHT22;38105;52.968;5.974;2023-04-08T12:02:43;11.40;99.90
52107;DHT22;38105;52.968;5.974;2023-04-08T12:05:09;11.30;99.90
52107;DHT22;38105;52.968;5.974;2023-04-08T12:07:35;11.40;99.90
52107;DHT22;38105;52.968;5.974;2023-04-08T12:10:01;11.40;99.90
52107;DHT22;38105;52.968;5.974;2023-04-08T12:12:26;11.30;99.90
52107;DHT22;38105;52.968;5.974;2023-04-08T12:14:52;11.40;99.90
52107;DHT22;38105;52.968;5.974;2023-04-08T12:17:18;11.20;99.90
52107;DHT22;38105;52.968;5.974;2023-04-08T12:19:43;11.30;99.90
52107;DHT22;38105;52.968;5.974;2023-04-08T12:22:09;11.30;99.90
52107;DHT22;38105;52.968;5.974;2023-04-08T12:24:35;11.20;99.90
52107;DHT22;38105;52.968;5.974;2023-04-08T12:27:00;11.20;99.90
52107;DHT22;38105;52.968;5.974;2023-04-08T12:29:27;11.10;99.90
52107;DHT22;38105;52.968;5.974;2023-04-08T12:31:53;11.30;99.90
52107;DHT22;38105;52.968;5.974;2023-04-08T12:34:19;11.20;99.90
52107;DHT22;38105;52.968;5.974;2023-04-08T12:36:44;11.20;99.90
52107;DHT22;38105;52.968;5.974;2023-04-08T12:39:10;11.10;99.90
52107;DHT22;38105;52.968;5.974;2023-04-08T12:41:36;11.20;99.90
52107;DHT22;38105;52.968;5.974;2023-04-08T12:44:01;11.30;99.90
52107;DHT22;38105;52.968;5.974;2023-04-08T12:46:27;11.30;99.90
52107;DHT22;38105;52.968;5.974;2023-04-08T12:48:53;11.50;99.90
52107;DHT22;38105;52.968;5.974;2023-04-08T12:51:18;11.50;99.90
52107;DHT22;38105;52.968;5.974;2023-04-08T12:53:44;11.40;99.90
52107;DHT22;38105;52.968;5.974;2023-04-08T12:56:10;11.40;99.90
52107;DHT22;38105;52.968;5.974;2023-04-08T12:58:36;11.40;99.90
52107;DHT22;38105;52.968;5.974;2023-04-08T13:01:02;11.40;99.90
52107;DHT22;38105;52.968;5.974;2023-04-08T13:03:27;11.50;99.90
52107;DHT22;38105;52.968;5.974;2023-04-08T13:05:56;11.50;99.90
52107;DHT22;38105;52.968;5.974;2023-04-08T13:08:24;11.40;99.90
52107;DHT22;38105;52.968;5.974;2023-04-08T13:10:49;11.30;99.90
52107;DHT22;38105;52.968;5.974;2023-04-08T13:13:15;11.40;99.90
52107;DHT22;38105;52.968;5.974;2023-04-08T13:15:41;11.40;99.90
52107;DHT22;38105;52.968;5.974;2023-04-08T13:18:08;11.40;99.90
52107;DHT22;38105;52.968;5.974;2023-04-08T13:20:34;11.40;99.90
52107;DHT22;38105;52.968;5.974;2023-04-08T13:23:00;11.40;99.90
52107;DHT22;38105;52.968;5.974;2023-04-08T13:25:26;11.30;99.90
52107;DHT22;38105;52.968;5.974;2023-04-08T13:27:51;11.30;99.90
52107;DHT22;38105;52.968;5.974;2023-04-08T13:30:17;11.30;99.90
52107;DHT22;38105;52.968;5.974;2023-04-08T13:32:43;11.30;99.90
52107;DHT22;38105;52.968;5.974;2023-04-08T13:35:09;11.30;99.90
52107;DHT22;38105;52.968;5.974;2023-04-08T13:37:34;11.40;99.90
52107;DHT22;38105;52.968;5.974;2023-04-08T13:40:00;11.30;99.90
52107;DHT22;38105;52.968;5.974;2023-04-08T13:42:26;11.30;99.90
52107;DHT22;38105;52.968;5.974;2023-04-08T13:44:52;11.30;99.90
52107;DHT22;38105;52.968;5.974;2023-04-08T13:47:17;11.30;99.90
52107;DHT22;38105;52.968;5.974;2023-04-08T13:49:43;11.40;99.90
52107;DHT22;38105;52.968;5.974;2023-04-08T13:52:09;11.20;99.90
52107;DHT22;38105;52.968;5.974;2023-04-08T13:54:34;11.20;99.90
52107;DHT22;38105;52.968;5.974;2023-04-08T13:57:00;11.30;99.90
52107;DHT22;38105;52.968;5.974;2023-04-08T13:59:26;11.30;99.90
52107;DHT22;38105;52.968;5.974;2023-04-08T14:01:51;11.40;99.90
52107;DHT22;38105;52.968;5.974;2023-04-08T14:04:21;11.40;99.90
52107;DHT22;38105;52.968;5.974;2023-04-08T14:06:49;11.40;99.90
52107;DHT22;38105;52.968;5.974;2023-04-08T14:09:22;11.40;99.90
52107;DHT22;38105;52.968;5.974;2023-04-08T14:11:47;11.40;99.90
52107;DHT22;38105;52.968;5.974;2023-04-08T14:14:13;11.30;99.90
52107;DHT22;38105;52.968;5.974;2023-04-08T14:16:38;11.40;99.90
52107;DHT22;38105;52.968;5.974;2023-04-08T14:19:04;11.30;99.90
52107;DHT22;38105;52.968;5.974;2023-04-08T14:21:30;11.30;99.90
52107;DHT22;38105;52.968;5.974;2023-04-08T14:23:56;11.30;99.90
52107;DHT22;38105;52.968;5.974;2023-04-08T14:26:22;11.40;99.90
52107;DHT22;38105;52.968;5.974;2023-04-08T14:28:48;11.40;99.90
52107;DHT22;38105;52.968;5.974;2023-04-08T14:31:14;11.40;99.90
52107;DHT22;38105;52.968;5.974;2023-04-08T14:33:41;11.40;99.90
52107;DHT22;38105;52.968;5.974;2023-04-08T14:36:07;11.50;99.90
52107;DHT22;38105;52.968;5.974;2023-04-08T14:38:33;11.50;99.90
52107;DHT22;38105;52.968;5.974;2023-04-08T14:40:59;11.50;99.90
52107;DHT22;38105;52.968;5.974;2023-04-08T14:43:25;11.50;99.90
52107;DHT22;38105;52.968;5.974;2023-04-08T14:45:51;11.40;99.90
52107;DHT22;38105;52.968;5.974;2023-04-08T14:48:17;11.40;99.90
52107;DHT22;38105;52.968;5.974;2023-04-08T14:50:43;11.30;99.90
52107;DHT22;38105;52.968;5.974;2023-04-08T14:53:09;11.20;99.90
52107;DHT22;38105;52.968;5.974;2023-04-08T14:55:35;11.30;99.90
52107;DHT22;38105;52.968;5.974;2023-04-08T14:58:01;11.10;99.90
52107;DHT22;38105;52.968;5.974;2023-04-08T15:00:27;11.20;99.90
52107;DHT22;38105;52.968;5.974;2023-04-08T15:02:52;11.20;99.90
52107;DHT22;38105;52.968;5.974;2023-04-08T15:05:18;11.10;99.90
52107;DHT22;38105;52.968;5.974;2023-04-08T15:07:44;11.20;99.90
52107;DHT22;38105;52.968;5.974;2023-04-08T15:10:11;11.20;99.90
52107;DHT22;38105;52.968;5.974;2023-04-08T15:12:37;11.10;99.90
52107;DHT22;38105;52.968;5.974;2023-04-08T15:15:03;11.00;99.90
52107;DHT22;38105;52.968;5.974;2023-04-08T15:17:29;11.10;99.90
52107;DHT22;38105;52.968;5.974;2023-04-08T15:19:55;11.10;99.90
52107;DHT22;38105;52.968;5.974;2023-04-08T15:22:21;11.20;99.90
52107;DHT22;38105;52.968;5.974;2023-04-08T15:24:47;11.10;99.90
52107;DHT22;38105;52.968;5.974;2023-04-08T15:27:13;11.20;99.90
52107;DHT22;38105;52.968;5.974;2023-04-08T15:29:40;11.20;99.90
52107;DHT22;38105;52.968;5.974;2023-04-08T15:32:06;11.10;99.90
52107;DHT22;38105;52.968;5.974;2023-04-08T15:34:31;11.10;99.90
52107;DHT22;38105;52.968;5.974;2023-04-08T15:36:57;11.10;99.90
52107;DHT22;38105;52.968;5.974;2023-04-08T15:39:23;11.10;99.90
52107;DHT22;38105;52.968;5.974;2023-04-08T15:41:49;10.90;99.90
52107;DHT22;38105;52.968;5.974;2023-04-08T15:44:14;11.00;99.90
52107;DHT22;38105;52.968;5.974;2023-04-08T15:46:40;11.00;99.90
52107;DHT22;38105;52.968;5.974;2023-04-08T15:49:06;11.10;99.90
52107;DHT22;38105;52.968;5.974;2023-04-08T15:51:34;11.10;99.90
52107;DHT22;38105;52.968;5.974;2023-04-08T15:54:00;11.00;99.90
52107;DHT22;38105;52.968;5.974;2023-04-08T15:56:26;11.00;99.90
52107;DHT22;38105;52.968;5.974;2023-04-08T15:58:54;11.00;99.90
52107;DHT22;38105;52.968;5.974;2023-04-08T16:01:21;11.00;99.90